sensor_id;sensor_type;location;lat;lon;timestamp;P1;durP1;ratioP1;P2;durP2;ratioP2
80421;SDS011;69763;50.182;9.144;2023-05-23T00:00:31;29.60;;;16.02;;
80421;SDS011;69763;50.182;9.144;2023-05-23T00:02:56;35.08;;;15.75;;
80421;SDS011;69763;50.182;9.144;2023-05-23T00:05:22;35.35;;;15.68;;
80421;SDS011;69763;50.182;9.144;2023-05-23T00:07:47;38.75;;;17.50;;
80421;SDS011;69763;50.182;9.144;2023-05-23T00:10:12;29.42;;;15.35;;
80421;SDS011;69763;50.182;9.144;2023-05-23T00:12:38;34.70;;;16.45;;
80421;SDS011;69763;50.182;9.144;2023-05-23T00:15:05;37.10;;;16.73;;
80421;SDS011;69763;50.182;9.144;2023-05-23T00:17:31;32.90;;;16.90;;
80421;SDS011;69763;50.182;9.144;2023-05-23T00:19:57;37.80;;;18.58;;
80421;SDS011;69763;50.182;9.144;2023-05-23T00:22:22;32.28;;;16.77;;
80421;SDS011;69763;50.182;9.144;2023-05-23T00:24:48;37.40;;;17.13;;
80421;SDS011;69763;50.182;9.144;2023-05-23T00:27:13;34.03;;;16.60;;
80421;SDS011;69763;50.182;9.144;2023-05-23T00:29:38;31.90;;;17.08;;
80421;SDS011;69763;50.182;9.144;2023-05-23T00:32:05;32.17;;;15.85;;
80421;SDS011;69763;50.182;9.144;2023-05-23T00:34:31;29.23;;;16.10;;
80421;SDS011;69763;50.182;9.144;2023-05-23T00:36:56;36.33;;;16.75;;
80421;SDS011;69763;50.182;9.144;2023-05-23T00:39:21;31.50;;;16.75;;
80421;SDS011;69763;50.182;9.144;2023-05-23T00:41:47;34.23;;;17.27;;
80421;SDS011;69763;50.182;9.144;2023-05-23T00:44:13;38.88;;;17.35;;
80421;SDS011;69763;50.182;9.144;2023-05-23T00:46:39;38.58;;;17.38;;
80421;SDS011;69763;50.182;9.144;2023-05-23T00:49:08;39.95;;;19.85;;
80421;SDS011;69763;50.182;9.144;2023-05-23T00:51:33;53.60;;;19.83;;
80421;SDS011;69763;50.182;9.144;2023-05-23T00:53:59;44.47;;;19.90;;
80421;SDS011;69763;50.182;9.144;2023-05-23T00:56:25;46.13;;;20.38;;
80421;SDS011;69763;50.182;9.144;2023-05-23T00:58:51;53.47;;;21.13;;
80421;SDS011;69763;50.182;9.144;2023-05-23T01:01:18;52.65;;;19.20;;
80421;SDS011;69763;50.182;9.144;2023-05-23T01:03:43;44.63;;;17.88;;
80421;SDS011;69763;50.182;9.144;2023-05-23T01:06:10;36.67;;;16.60;;
80421;SDS011;69763;50.182;9.144;2023-05-23T01:08:35;40.28;;;16.48;;
80421;SDS011;69763;50.182;9.144;2023-05-23T01:11:03;40.15;;;17.50;;
80421;SDS011;69763;50.182;9.144;2023-05-23T01:13:33;34.65;;;15.27;;
80421;SDS011;69763;50.182;9.144;2023-05-23T01:16:06;33.20;;;16.35;;
80421;SDS011;69763;50.182;9.144;2023-05-23T01:18:38;36.40;;;17.02;;
80421;SDS011;69763;50.182;9.144;2023-05-23T01:21:08;40.10;;;19.10;;
80421;SDS011;69763;50.182;9.144;2023-05-23T01:23:51;65.53;;;21.60;;
80421;SDS011;69763;50.182;9.144;2023-05-23T01:26:30;62.00;;;23.88;;
80421;SDS011;69763;50.182;9.144;2023-05-23T01:28:59;69.93;;;23.38;;
80421;SDS011;69763;50.182;9.144;2023-05-23T01:31:28;50.78;;;20.73;;
80421;SDS011;69763;50.182;9.144;2023-05-23T01:33:54;62.95;;;23.60;;
80421;SDS011;69763;50.182;9.144;2023-05-23T01:36:20;59.55;;;22.02;;
80421;SDS011;69763;50.182;9.144;2023-05-23T01:38:46;47.67;;;19.52;;
80421;SDS011;69763;50.182;9.144;2023-05-23T01:41:11;40.47;;;19.58;;
80421;SDS011;69763;50.182;9.144;2023-05-23T01:43:36;43.33;;;19.00;;
80421;SDS011;69763;50.182;9.144;2023-05-23T01:46:04;43.42;;;19.23;;
80421;SDS011;69763;50.182;9.144;2023-05-23T01:48:31;34.72;;;16.75;;
80421;SDS011;69763;50.182;9.144;2023-05-23T01:50:57;39.22;;;18.38;;
80421;SDS011;69763;50.182;9.144;2023-05-23T01:53:22;43.08;;;19.50;;
80421;SDS011;69763;50.182;9.144;2023-05-23T01:55:49;40.13;;;19.17;;
80421;SDS011;69763;50.182;9.144;2023-05-23T01:58:15;38.90;;;19.08;;
80421;SDS011;69763;50.182;9.144;2023-05-23T02:00:41;44.13;;;20.33;;
80421;SDS011;69763;50.182;9.144;2023-05-23T02:03:08;46.05;;;20.35;;
80421;SDS011;69763;50.182;9.144;2023-05-23T02:05:33;43.13;;;19.50;;
80421;SDS011;69763;50.182;9.144;2023-05-23T02:07:58;34.90;;;18.15;;
80421;SDS011;69763;50.182;9.144;2023-05-23T02:10:24;37.63;;;19.98;;
80421;SDS011;69763;50.182;9.144;2023-05-23T02:12:49;34.88;;;18.02;;
80421;SDS011;69763;50.182;9.144;2023-05-23T02:15:15;37.75;;;17.65;;
80421;SDS011;69763;50.182;9.144;2023-05-23T02:17:40;40.47;;;17.35;;
80421;SDS011;69763;50.182;9.144;2023-05-23T02:20:08;28.23;;;15.65;;
80421;SDS011;69763;50.182;9.144;2023-05-23T02:22:34;39.58;;;18.67;;
80421;SDS011;69763;50.182;9.144;2023-05-23T02:24:59;46.40;;;18.85;;
80421;SDS011;69763;50.182;9.144;2023-05-23T02:27:25;47.17;;;19.60;;
80421;SDS011;69763;50.182;9.144;2023-05-23T02:29:50;46.40;;;18.95;;
80421;SDS011;69763;50.182;9.144;2023-05-23T02:32:15;35.72;;;15.93;;
80421;SDS011;69763;50.182;9.144;2023-05-23T02:34:41;43.63;;;18.60;;
80421;SDS011;69763;50.182;9.144;2023-05-23T02:37:07;30.17;;;16.65;;
80421;SDS011;69763;50.182;9.144;2023-05-23T02:39:33;38.70;;;17.77;;
80421;SDS011;69763;50.182;9.144;2023-05-23T02:41:59;42.55;;;19.77;;
80421;SDS011;69763;50.182;9.144;2023-05-23T02:44:24;38.67;;;18.10;;
80421;SDS011;69763;50.182;9.144;2023-05-23T02:46:50;40.22;;;19.52;;
80421;SDS011;69763;50.182;9.144;2023-05-23T02:49:15;37.83;;;18.13;;
80421;SDS011;69763;50.182;9.144;2023-05-23T02:51:40;31.75;;;17.55;;
80421;SDS011;69763;50.182;9.144;2023-05-23T02:54:07;35.83;;;17.50;;
80421;SDS011;69763;50.182;9.144;2023-05-23T02:56:32;37.55;;;18.05;;
80421;SDS011;69763;50.182;9.144;2023-05-23T02:58:58;35.85;;;19.15;;
80421;SDS011;69763;50.182;9.144;2023-05-23T03:01:23;31.75;;;17.73;;
80421;SDS011;69763;50.182;9.144;2023-05-23T03:03:48;37.40;;;18.15;;
80421;SDS011;69763;50.182;9.144;2023-05-23T03:06:14;37.90;;;18.90;;
80421;SDS011;69763;50.182;9.144;2023-05-23T03:08:40;39.35;;;19.83;;
80421;SDS011;69763;50.182;9.144;2023-05-23T03:11:07;46.13;;;22.48;;
80421;SDS011;69763;50.182;9.144;2023-05-23T03:13:33;40.53;;;21.58;;
80421;SDS011;69763;50.182;9.144;2023-05-23T03:15:58;41.75;;;20.98;;
80421;SDS011;69763;50.182;9.144;2023-05-23T03:18:23;47.72;;;21.98;;
80421;SDS011;69763;50.182;9.144;2023-05-23T03:20:49;44.33;;;21.35;;
80421;SDS011;69763;50.182;9.144;2023-05-23T03:23:14;39.42;;;20.63;;
80421;SDS011;69763;50.182;9.144;2023-05-23T03:25:39;52.47;;;23.65;;
80421;SDS011;69763;50.182;9.144;2023-05-23T03:28:08;44.65;;;23.38;;
80421;SDS011;69763;50.182;9.144;2023-05-23T03:30:33;42.00;;;21.73;;
80421;SDS011;69763;50.182;9.144;2023-05-23T03:32:59;43.50;;;22.00;;
80421;SDS011;69763;50.182;9.144;2023-05-23T03:35:24;41.35;;;20.50;;
80421;SDS011;69763;50.182;9.144;2023-05-23T03:37:49;41.95;;;21.40;;
80421;SDS011;69763;50.182;9.144;2023-05-23T03:40:15;37.00;;;21.38;;
80421;SDS011;69763;50.182;9.144;2023-05-23T03:42:40;40.40;;;20.77;;
80421;SDS011;69763;50.182;9.144;2023-05-23T03:45:07;41.55;;;23.38;;
80421;SDS011;69763;50.182;9.144;2023-05-23T03:47:32;40.95;;;21.08;;
80421;SDS011;69763;50.182;9.144;2023-05-23T03:49:58;38.58;;;22.00;;
80421;SDS011;69763;50.182;9.144;2023-05-23T03:52:23;40.33;;;22.45;;
80421;SDS011;69763;50.182;9.144;2023-05-23T03:54:48;45.40;;;22.48;;
80421;SDS011;69763;50.182;9.144;2023-05-23T03:57:14;37.38;;;22.98;;
80421;SDS011;69763;50.182;9.144;2023-05-23T03:59:39;34.60;;;21.45;;
80421;SDS011;69763;50.182;9.144;2023-05-23T04:02:06;41.00;;;21.92;;
80421;SDS011;69763;50.182;9.144;2023-05-23T04:04:31;35.95;;;19.55;;
80421;SDS011;69763;50.182;9.144;2023-05-23T04:06:57;36.28;;;19.23;;
80421;SDS011;69763;50.182;9.144;2023-05-23T04:09:23;33.10;;;18.67;;
80421;SDS011;69763;50.182;9.144;2023-05-23T04:11:48;33.90;;;19.38;;
80421;SDS011;69763;50.182;9.144;2023-05-23T04:14:13;34.08;;;19.05;;
80421;SDS011;69763;50.182;9.144;2023-05-23T04:16:39;34.72;;;19.92;;
80421;SDS011;69763;50.182;9.144;2023-05-23T04:19:06;35.75;;;20.13;;
80421;SDS011;69763;50.182;9.144;2023-05-23T04:21:31;33.88;;;19.58;;
80421;SDS011;69763;50.182;9.144;2023-05-23T04:23:57;38.00;;;19.05;;
80421;SDS011;69763;50.182;9.144;2023-05-23T04:26:22;27.48;;;16.77;;
80421;SDS011;69763;50.182;9.144;2023-05-23T04:28:48;30.65;;;17.95;;
80421;SDS011;69763;50.182;9.144;2023-05-23T04:31:14;27.05;;;16.50;;
80421;SDS011;69763;50.182;9.144;2023-05-23T04:33:39;25.00;;;16.33;;
80421;SDS011;69763;50.182;9.144;2023-05-23T04:36:07;31.30;;;16.60;;
80421;SDS011;69763;50.182;9.144;2023-05-23T04:38:32;29.35;;;16.70;;
80421;SDS011;69763;50.182;9.144;2023-05-23T04:40:58;27.67;;;16.60;;
80421;SDS011;69763;50.182;9.144;2023-05-23T04:43:23;24.83;;;15.18;;
80421;SDS011;69763;50.182;9.144;2023-05-23T04:45:49;24.02;;;14.63;;
80421;SDS011;69763;50.182;9.144;2023-05-23T04:48:14;24.77;;;14.70;;
80421;SDS011;69763;50.182;9.144;2023-05-23T04:50:39;23.70;;;14.80;;
80421;SDS011;69763;50.182;9.144;2023-05-23T04:53:06;23.67;;;13.95;;
80421;SDS011;69763;50.182;9.144;2023-05-23T04:55:31;24.92;;;13.23;;
80421;SDS011;69763;50.182;9.144;2023-05-23T04:57:57;27.45;;;14.30;;
80421;SDS011;69763;50.182;9.144;2023-05-23T05:00:22;20.77;;;12.75;;
80421;SDS011;69763;50.182;9.144;2023-05-23T05:02:48;23.73;;;12.00;;
80421;SDS011;69763;50.182;9.144;2023-05-23T05:05:13;20.77;;;11.93;;
80421;SDS011;69763;50.182;9.144;2023-05-23T05:07:39;16.58;;;10.70;;
80421;SDS011;69763;50.182;9.144;2023-05-23T05:10:06;22.27;;;12.63;;
80421;SDS011;69763;50.182;9.144;2023-05-23T05:12:32;21.10;;;12.73;;
80421;SDS011;69763;50.182;9.144;2023-05-23T05:14:57;21.52;;;13.23;;
80421;SDS011;69763;50.182;9.144;2023-05-23T05:17:22;20.17;;;11.85;;
80421;SDS011;69763;50.182;9.144;2023-05-23T05:19:48;21.95;;;12.77;;
80421;SDS011;69763;50.182;9.144;2023-05-23T05:22:13;18.55;;;12.27;;
80421;SDS011;69763;50.182;9.144;2023-05-23T05:24:39;21.20;;;11.00;;
80421;SDS011;69763;50.182;9.144;2023-05-23T05:27:06;19.75;;;10.95;;
80421;SDS011;69763;50.182;9.144;2023-05-23T05:29:31;21.42;;;10.77;;
80421;SDS011;69763;50.182;9.144;2023-05-23T05:31:57;21.00;;;11.75;;
80421;SDS011;69763;50.182;9.144;2023-05-23T05:34:22;14.38;;;9.40;;
80421;SDS011;69763;50.182;9.144;2023-05-23T05:36:47;13.52;;;8.52;;
80421;SDS011;69763;50.182;9.144;2023-05-23T05:39:13;15.48;;;8.75;;
80421;SDS011;69763;50.182;9.144;2023-05-23T05:41:38;12.55;;;8.18;;
80421;SDS011;69763;50.182;9.144;2023-05-23T05:44:05;12.18;;;7.07;;
80421;SDS011;69763;50.182;9.144;2023-05-23T05:46:30;11.50;;;6.80;;
80421;SDS011;69763;50.182;9.144;2023-05-23T05:48:56;9.25;;;6.38;;
80421;SDS011;69763;50.182;9.144;2023-05-23T05:51:21;9.95;;;6.63;;
80421;SDS011;69763;50.182;9.144;2023-05-23T05:53:46;11.18;;;6.05;;
80421;SDS011;69763;50.182;9.144;2023-05-23T05:56:12;7.68;;;5.57;;
80421;SDS011;69763;50.182;9.144;2023-05-23T05:58:37;11.85;;;7.05;;
80421;SDS011;69763;50.182;9.144;2023-05-23T06:01:04;9.15;;;6.28;;
80421;SDS011;69763;50.182;9.144;2023-05-23T06:03:29;9.07;;;5.97;;
80421;SDS011;69763;50.182;9.144;2023-05-23T06:05:55;11.77;;;7.13;;
80421;SDS011;69763;50.182;9.144;2023-05-23T06:08:20;12.88;;;7.38;;
80421;SDS011;69763;50.182;9.144;2023-05-23T06:10:46;12.77;;;7.07;;
80421;SDS011;69763;50.182;9.144;2023-05-23T06:13:11;11.75;;;7.05;;
80421;SDS011;69763;50.182;9.144;2023-05-23T06:15:36;14.63;;;7.88;;
80421;SDS011;69763;50.182;9.144;2023-05-23T06:18:03;9.85;;;6.80;;
80421;SDS011;69763;50.182;9.144;2023-05-23T06:20:29;11.20;;;7.07;;
80421;SDS011;69763;50.182;9.144;2023-05-23T06:22:54;11.20;;;6.63;;
80421;SDS011;69763;50.182;9.144;2023-05-23T06:25:19;11.82;;;7.03;;
80421;SDS011;69763;50.182;9.144;2023-05-23T06:27:45;12.55;;;6.85;;
80421;SDS011;69763;50.182;9.144;2023-05-23T06:30:10;13.70;;;6.80;;
80421;SDS011;69763;50.182;9.144;2023-05-23T06:32:37;10.82;;;6.40;;
80421;SDS011;69763;50.182;9.144;2023-05-23T06:35:04;9.48;;;5.88;;
80421;SDS011;69763;50.182;9.144;2023-05-23T06:37:30;9.05;;;5.93;;
80421;SDS011;69763;50.182;9.144;2023-05-23T06:39:55;8.13;;;5.40;;
80421;SDS011;69763;50.182;9.144;2023-05-23T06:42:20;10.15;;;5.15;;
80421;SDS011;69763;50.182;9.144;2023-05-23T06:44:46;7.88;;;5.13;;
80421;SDS011;69763;50.182;9.144;2023-05-23T06:47:11;7.97;;;5.10;;
80421;SDS011;69763;50.182;9.144;2023-05-23T06:49:37;6.68;;;4.40;;
80421;SDS011;69763;50.182;9.144;2023-05-23T06:52:05;8.15;;;5.30;;
80421;SDS011;69763;50.182;9.144;2023-05-23T06:54:30;7.70;;;5.10;;
80421;SDS011;69763;50.182;9.144;2023-05-23T06:56:55;7.13;;;4.88;;
80421;SDS011;69763;50.182;9.144;2023-05-23T06:59:21;7.25;;;4.72;;
80421;SDS011;69763;50.182;9.144;2023-05-23T07:01:46;7.40;;;4.13;;
80421;SDS011;69763;50.182;9.144;2023-05-23T07:04:12;4.80;;;3.70;;
80421;SDS011;69763;50.182;9.144;2023-05-23T07:06:37;6.50;;;3.92;;
80421;SDS011;69763;50.182;9.144;2023-05-23T07:09:04;9.20;;;4.25;;
80421;SDS011;69763;50.182;9.144;2023-05-23T07:11:29;6.07;;;4.03;;
80421;SDS011;69763;50.182;9.144;2023-05-23T07:13:55;6.22;;;3.70;;
80421;SDS011;69763;50.182;9.144;2023-05-23T07:16:20;6.97;;;3.75;;
80421;SDS011;69763;50.182;9.144;2023-05-23T07:18:45;5.00;;;3.63;;
80421;SDS011;69763;50.182;9.144;2023-05-23T07:21:11;8.52;;;3.83;;
80421;SDS011;69763;50.182;9.144;2023-05-23T07:23:36;6.15;;;3.88;;
80421;SDS011;69763;50.182;9.144;2023-05-23T07:26:03;4.65;;;3.22;;
80421;SDS011;69763;50.182;9.144;2023-05-23T07:28:28;5.88;;;3.13;;
80421;SDS011;69763;50.182;9.144;2023-05-23T07:30:54;5.10;;;3.38;;
80421;SDS011;69763;50.182;9.144;2023-05-23T07:33:19;4.47;;;2.85;;
80421;SDS011;69763;50.182;9.144;2023-05-23T07:35:44;5.25;;;3.40;;
80421;SDS011;69763;50.182;9.144;2023-05-23T07:38:10;5.18;;;3.58;;
80421;SDS011;69763;50.182;9.144;2023-05-23T07:40:35;4.75;;;3.30;;
80421;SDS011;69763;50.182;9.144;2023-05-23T07:43:02;5.68;;;3.85;;
80421;SDS011;69763;50.182;9.144;2023-05-23T07:45:28;5.82;;;3.42;;
80421;SDS011;69763;50.182;9.144;2023-05-23T07:47:53;4.72;;;3.40;;
80421;SDS011;69763;50.182;9.144;2023-05-23T07:50:18;4.13;;;3.10;;
80421;SDS011;69763;50.182;9.144;2023-05-23T07:52:44;6.78;;;3.60;;
80421;SDS011;69763;50.182;9.144;2023-05-23T07:55:09;5.93;;;3.58;;
80421;SDS011;69763;50.182;9.144;2023-05-23T07:57:35;5.28;;;3.63;;
80421;SDS011;69763;50.182;9.144;2023-05-23T08:00:01;6.40;;;4.18;;
80421;SDS011;69763;50.182;9.144;2023-05-23T08:02:27;5.75;;;4.15;;
80421;SDS011;69763;50.182;9.144;2023-05-23T08:04:53;6.10;;;3.55;;
80421;SDS011;69763;50.182;9.144;2023-05-23T08:07:18;7.60;;;4.40;;
80421;SDS011;69763;50.182;9.144;2023-05-23T08:09:44;5.65;;;3.90;;
80421;SDS011;69763;50.182;9.144;2023-05-23T08:12:09;7.43;;;3.72;;
80421;SDS011;69763;50.182;9.144;2023-05-23T08:14:35;6.57;;;3.80;;
80421;SDS011;69763;50.182;9.144;2023-05-23T08:17:01;9.25;;;4.30;;
80421;SDS011;69763;50.182;9.144;2023-05-23T08:19:27;7.10;;;4.43;;
80421;SDS011;69763;50.182;9.144;2023-05-23T08:21:53;5.90;;;4.35;;
80421;SDS011;69763;50.182;9.144;2023-05-23T08:24:18;5.40;;;4.65;;
80421;SDS011;69763;50.182;9.144;2023-05-23T08:26:44;6.15;;;4.13;;
80421;SDS011;69763;50.182;9.144;2023-05-23T08:29:09;6.45;;;3.78;;
80421;SDS011;69763;50.182;9.144;2023-05-23T08:31:34;7.07;;;4.20;;
80421;SDS011;69763;50.182;9.144;2023-05-23T08:34:01;6.78;;;4.18;;
80421;SDS011;69763;50.182;9.144;2023-05-23T08:36:27;5.30;;;3.53;;
80421;SDS011;69763;50.182;9.144;2023-05-23T08:38:52;4.90;;;3.22;;
80421;SDS011;69763;50.182;9.144;2023-05-23T08:41:18;5.50;;;3.65;;
80421;SDS011;69763;50.182;9.144;2023-05-23T08:43:44;6.10;;;3.95;;
80421;SDS011;69763;50.182;9.144;2023-05-23T08:46:10;3.83;;;2.90;;
80421;SDS011;69763;50.182;9.144;2023-05-23T08:48:36;5.82;;;3.53;;
80421;SDS011;69763;50.182;9.144;2023-05-23T08:51:04;9.93;;;3.88;;
80421;SDS011;69763;50.182;9.144;2023-05-23T08:53:33;4.70;;;3.63;;
80421;SDS011;69763;50.182;9.144;2023-05-23T08:56:01;5.60;;;3.55;;
80421;SDS011;69763;50.182;9.144;2023-05-23T08:58:27;5.13;;;3.83;;
80421;SDS011;69763;50.182;9.144;2023-05-23T09:00:53;4.60;;;3.17;;
80421;SDS011;69763;50.182;9.144;2023-05-23T09:03:19;4.47;;;3.13;;
80421;SDS011;69763;50.182;9.144;2023-05-23T09:05:44;5.47;;;4.20;;
80421;SDS011;69763;50.182;9.144;2023-05-23T09:08:11;5.13;;;3.42;;
80421;SDS011;69763;50.182;9.144;2023-05-23T09:10:36;5.40;;;3.13;;
80421;SDS011;69763;50.182;9.144;2023-05-23T09:13:02;5.30;;;4.35;;
80421;SDS011;69763;50.182;9.144;2023-05-23T09:15:28;5.88;;;3.70;;
80421;SDS011;69763;50.182;9.144;2023-05-23T09:17:58;7.25;;;3.80;;
80421;SDS011;69763;50.182;9.144;2023-05-23T09:20:23;10.32;;;3.90;;
80421;SDS011;69763;50.182;9.144;2023-05-23T09:22:49;6.22;;;3.67;;
80421;SDS011;69763;50.182;9.144;2023-05-23T09:25:16;4.85;;;3.42;;
80421;SDS011;69763;50.182;9.144;2023-05-23T09:27:41;9.00;;;4.93;;
80421;SDS011;69763;50.182;9.144;2023-05-23T09:30:08;5.82;;;3.70;;
80421;SDS011;69763;50.182;9.144;2023-05-23T09:32:34;5.15;;;3.78;;
80421;SDS011;69763;50.182;9.144;2023-05-23T09:35:00;6.85;;;4.07;;
80421;SDS011;69763;50.182;9.144;2023-05-23T09:37:30;5.72;;;3.38;;
80421;SDS011;69763;50.182;9.144;2023-05-23T09:39:57;5.30;;;3.72;;
80421;SDS011;69763;50.182;9.144;2023-05-23T09:42:25;5.28;;;3.72;;
80421;SDS011;69763;50.182;9.144;2023-05-23T09:44:57;5.78;;;3.97;;
80421;SDS011;69763;50.182;9.144;2023-05-23T09:47:22;6.20;;;3.60;;
80421;SDS011;69763;50.182;9.144;2023-05-23T09:49:48;5.57;;;3.67;;
80421;SDS011;69763;50.182;9.144;2023-05-23T09:52:13;5.93;;;4.13;;
80421;SDS011;69763;50.182;9.144;2023-05-23T09:54:39;5.35;;;3.85;;
80421;SDS011;69763;50.182;9.144;2023-05-23T09:57:05;6.10;;;3.50;;
80421;SDS011;69763;50.182;9.144;2023-05-23T09:59:36;4.22;;;3.22;;
80421;SDS011;69763;50.182;9.144;2023-05-23T10:02:03;8.30;;;3.95;;
80421;SDS011;69763;50.182;9.144;2023-05-23T10:04:31;4.85;;;3.40;;
80421;SDS011;69763;50.182;9.144;2023-05-23T10:07:00;6.47;;;3.60;;
80421;SDS011;69763;50.182;9.144;2023-05-23T10:12:19;4.20;;;3.25;;
80421;SDS011;69763;50.182;9.144;2023-05-23T10:15:07;5.10;;;3.90;;
80421;SDS011;69763;50.182;9.144;2023-05-23T10:17:35;4.80;;;3.38;;
80421;SDS011;69763;50.182;9.144;2023-05-23T10:20:09;5.82;;;4.00;;
80421;SDS011;69763;50.182;9.144;2023-05-23T10:22:35;6.70;;;4.30;;
80421;SDS011;69763;50.182;9.144;2023-05-23T10:25:01;4.47;;;3.72;;
80421;SDS011;69763;50.182;9.144;2023-05-23T10:27:27;6.82;;;3.75;;
80421;SDS011;69763;50.182;9.144;2023-05-23T10:29:53;6.65;;;3.60;;
80421;SDS011;69763;50.182;9.144;2023-05-23T10:32:21;5.15;;;3.45;;
80421;SDS011;69763;50.182;9.144;2023-05-23T10:34:52;4.05;;;3.15;;
80421;SDS011;69763;50.182;9.144;2023-05-23T10:37:22;4.88;;;3.50;;
80421;SDS011;69763;50.182;9.144;2023-05-23T10:39:53;5.63;;;3.72;;
80421;SDS011;69763;50.182;9.144;2023-05-23T10:42:27;5.63;;;4.20;;
80421;SDS011;69763;50.182;9.144;2023-05-23T10:45:18;5.10;;;3.33;;
80421;SDS011;69763;50.182;9.144;2023-05-23T10:47:47;5.15;;;3.33;;
80421;SDS011;69763;50.182;9.144;2023-05-23T10:50:13;6.35;;;3.97;;
80421;SDS011;69763;50.182;9.144;2023-05-23T10:52:40;6.82;;;4.57;;
80421;SDS011;69763;50.182;9.144;2023-05-23T10:55:11;4.60;;;3.40;;
80421;SDS011;69763;50.182;9.144;2023-05-23T10:57:38;6.30;;;4.20;;
80421;SDS011;69763;50.182;9.144;2023-05-23T11:00:04;5.85;;;3.95;;
80421;SDS011;69763;50.182;9.144;2023-05-23T11:02:36;4.75;;;3.70;;
80421;SDS011;69763;50.182;9.144;2023-05-23T11:05:22;6.57;;;3.72;;
80421;SDS011;69763;50.182;9.144;2023-05-23T11:08:07;6.60;;;5.05;;
80421;SDS011;69763;50.182;9.144;2023-05-23T11:10:53;5.72;;;3.90;;
80421;SDS011;69763;50.182;9.144;2023-05-23T11:13:20;6.20;;;3.80;;
80421;SDS011;69763;50.182;9.144;2023-05-23T11:15:46;6.57;;;4.10;;
80421;SDS011;69763;50.182;9.144;2023-05-23T11:18:18;4.28;;;3.20;;
80421;SDS011;69763;50.182;9.144;2023-05-23T11:20:46;5.18;;;2.88;;
80421;SDS011;69763;50.182;9.144;2023-05-23T11:23:13;4.85;;;3.05;;
80421;SDS011;69763;50.182;9.144;2023-05-23T11:25:39;4.85;;;3.03;;
80421;SDS011;69763;50.182;9.144;2023-05-23T11:28:05;4.47;;;2.95;;
80421;SDS011;69763;50.182;9.144;2023-05-23T11:30:31;3.90;;;2.35;;
80421;SDS011;69763;50.182;9.144;2023-05-23T11:32:58;4.47;;;2.80;;
80421;SDS011;69763;50.182;9.144;2023-05-23T11:35:23;4.10;;;2.70;;
80421;SDS011;69763;50.182;9.144;2023-05-23T11:37:50;5.18;;;2.63;;
80421;SDS011;69763;50.182;9.144;2023-05-23T11:40:29;4.30;;;2.30;;
80421;SDS011;69763;50.182;9.144;2023-05-23T11:42:55;4.13;;;2.60;;
80421;SDS011;69763;50.182;9.144;2023-05-23T11:45:21;4.10;;;2.22;;
80421;SDS011;69763;50.182;9.144;2023-05-23T11:47:47;3.65;;;2.58;;
80421;SDS011;69763;50.182;9.144;2023-05-23T11:50:13;3.20;;;2.20;;
80421;SDS011;69763;50.182;9.144;2023-05-23T11:52:39;4.47;;;2.72;;
80421;SDS011;69763;50.182;9.144;2023-05-23T11:55:07;3.35;;;2.50;;
80421;SDS011;69763;50.182;9.144;2023-05-23T11:57:36;4.57;;;2.30;;
80421;SDS011;69763;50.182;9.144;2023-05-23T12:00:02;3.97;;;2.40;;
80421;SDS011;69763;50.182;9.144;2023-05-23T12:02:29;3.40;;;2.20;;
80421;SDS011;69763;50.182;9.144;2023-05-23T12:04:55;3.70;;;2.33;;
80421;SDS011;69763;50.182;9.144;2023-05-23T12:07:20;3.80;;;2.20;;
80421;SDS011;69763;50.182;9.144;2023-05-23T12:09:45;3.33;;;2.20;;
80421;SDS011;69763;50.182;9.144;2023-05-23T12:12:12;4.13;;;2.20;;
80421;SDS011;69763;50.182;9.144;2023-05-23T12:14:38;4.82;;;2.53;;
80421;SDS011;69763;50.182;9.144;2023-05-23T12:17:04;3.47;;;2.30;;
80421;SDS011;69763;50.182;9.144;2023-05-23T12:19:29;2.65;;;2.10;;
80421;SDS011;69763;50.182;9.144;2023-05-23T12:21:55;3.30;;;2.22;;
80421;SDS011;69763;50.182;9.144;2023-05-23T12:24:20;3.08;;;2.15;;
80421;SDS011;69763;50.182;9.144;2023-05-23T12:26:50;5.13;;;2.33;;
80421;SDS011;69763;50.182;9.144;2023-05-23T12:29:19;2.10;;;1.83;;
80421;SDS011;69763;50.182;9.144;2023-05-23T12:31:48;4.07;;;2.10;;
80421;SDS011;69763;50.182;9.144;2023-05-23T12:34:14;3.47;;;2.10;;
80421;SDS011;69763;50.182;9.144;2023-05-23T12:36:40;2.97;;;1.92;;
80421;SDS011;69763;50.182;9.144;2023-05-23T12:39:05;2.33;;;1.73;;
80421;SDS011;69763;50.182;9.144;2023-05-23T12:41:31;2.85;;;1.90;;
80421;SDS011;69763;50.182;9.144;2023-05-23T12:43:56;2.83;;;2.00;;
80421;SDS011;69763;50.182;9.144;2023-05-23T12:46:24;1.88;;;1.50;;
80421;SDS011;69763;50.182;9.144;2023-05-23T12:48:50;1.73;;;1.60;;
80421;SDS011;69763;50.182;9.144;2023-05-23T12:51:16;2.63;;;1.60;;
80421;SDS011;69763;50.182;9.144;2023-05-23T12:53:41;4.03;;;1.95;;
80421;SDS011;69763;50.182;9.144;2023-05-23T12:56:07;2.50;;;1.45;;
80421;SDS011;69763;50.182;9.144;2023-05-23T12:58:33;2.50;;;1.60;;
80421;SDS011;69763;50.182;9.144;2023-05-23T13:00:58;3.20;;;1.77;;
80421;SDS011;69763;50.182;9.144;2023-05-23T13:03:25;2.13;;;1.52;;
80421;SDS011;69763;50.182;9.144;2023-05-23T13:05:50;3.58;;;2.05;;
80421;SDS011;69763;50.182;9.144;2023-05-23T13:08:16;2.90;;;2.08;;
80421;SDS011;69763;50.182;9.144;2023-05-23T13:10:41;2.40;;;1.80;;
80421;SDS011;69763;50.182;9.144;2023-05-23T13:13:06;3.20;;;2.00;;
80421;SDS011;69763;50.182;9.144;2023-05-23T13:15:32;2.45;;;1.70;;
80421;SDS011;69763;50.182;9.144;2023-05-23T13:17:57;6.13;;;2.25;;
80421;SDS011;69763;50.182;9.144;2023-05-23T13:20:24;3.40;;;2.17;;
80421;SDS011;69763;50.182;9.144;2023-05-23T13:22:49;2.83;;;1.70;;
80421;SDS011;69763;50.182;9.144;2023-05-23T13:25:15;3.03;;;2.10;;
80421;SDS011;69763;50.182;9.144;2023-05-23T13:27:40;4.40;;;1.70;;
80421;SDS011;69763;50.182;9.144;2023-05-23T13:30:06;6.05;;;2.00;;
80421;SDS011;69763;50.182;9.144;2023-05-23T13:32:33;6.72;;;2.75;;
80421;SDS011;69763;50.182;9.144;2023-05-23T13:34:58;2.33;;;1.73;;
80421;SDS011;69763;50.182;9.144;2023-05-23T13:37:25;2.53;;;1.52;;
80421;SDS011;69763;50.182;9.144;2023-05-23T13:39:50;2.22;;;1.60;;
80421;SDS011;69763;50.182;9.144;2023-05-23T13:42:15;2.88;;;1.80;;
80421;SDS011;69763;50.182;9.144;2023-05-23T13:44:41;3.10;;;2.03;;
80421;SDS011;69763;50.182;9.144;2023-05-23T13:47:09;2.67;;;1.75;;
80421;SDS011;69763;50.182;9.144;2023-05-23T13:49:36;2.83;;;1.83;;
80421;SDS011;69763;50.182;9.144;2023-05-23T13:52:01;6.03;;;1.73;;
80421;SDS011;69763;50.182;9.144;2023-05-23T13:54:28;2.70;;;1.77;;
80421;SDS011;69763;50.182;9.144;2023-05-23T13:56:53;2.83;;;1.80;;
80421;SDS011;69763;50.182;9.144;2023-05-23T13:59:19;3.20;;;1.92;;
80421;SDS011;69763;50.182;9.144;2023-05-23T14:01:44;2.38;;;1.80;;
80421;SDS011;69763;50.182;9.144;2023-05-23T14:04:09;5.28;;;1.90;;
80421;SDS011;69763;50.182;9.144;2023-05-23T14:06:35;2.33;;;1.67;;
80421;SDS011;69763;50.182;9.144;2023-05-23T14:09:00;2.22;;;1.60;;
80421;SDS011;69763;50.182;9.144;2023-05-23T14:11:27;2.80;;;1.80;;
80421;SDS011;69763;50.182;9.144;2023-05-23T14:13:53;5.93;;;1.95;;
80421;SDS011;69763;50.182;9.144;2023-05-23T14:16:18;2.30;;;1.45;;
80421;SDS011;69763;50.182;9.144;2023-05-23T14:18:43;3.53;;;1.50;;
80421;SDS011;69763;50.182;9.144;2023-05-23T14:21:09;2.92;;;1.83;;
80421;SDS011;69763;50.182;9.144;2023-05-23T14:23:34;2.17;;;1.80;;
80421;SDS011;69763;50.182;9.144;2023-05-23T14:25:59;2.47;;;1.63;;
80421;SDS011;69763;50.182;9.144;2023-05-23T14:28:26;2.88;;;1.95;;
80421;SDS011;69763;50.182;9.144;2023-05-23T14:30:52;2.38;;;1.70;;
80421;SDS011;69763;50.182;9.144;2023-05-23T14:33:17;4.80;;;1.80;;